Pagina principale
METAR-TAF:

METAR-TAF

Aeroporti :

Mendoza, Argentina

latitudine: 32-50S, longitudine: 068-47W, altezza: 705 m

Osservazione

Il bollettino è stato emesso 1 ora e 2 minuti fa, alle 20:00 UTC
Vento 9 kt da nord/nord-est
Temperature 20°C
Umidità 43%
Pressione 1017 hPa
Visibilità 10 km o più
nessuna nube inferiore a 1500 m e nessun cumulonembo

METAR: SAME 242000Z 02009KT CAVOK 20/07 Q1017

Ora: 18:02 (21:02 UTC)

Previsione

Il bollettino è stato emesso 4 ore e 2 minuti fa, alle 17:00 UTC
Previsione valida dal 24 alle 18 UTC al 25 alle 18 UTC
Vento 5 kt da nord-est
Visibilità 10 km o più
nessuna nube inferiore a 1500 m e nessun cumulonembo

TAF: SAME 241700Z 2418/2518 05005KT CAVOK TX21/2420Z TN07/2510Z

Osservazioni e previsioni meteorologiche di più di 4000 aeroporti (messaggi METAR e TAF).

Le stazioni disponibili sono rappresentate dai dischi gialli e rossi sulla carta.

Puntare il mouse per vedere il nome della stazione.

Clicca sopra per visualizzare le osservazioni e previsioni meteorologiche.

Per cambiare la mappa : fare clic sui pulsanti verdi con una croce nera per ingrandire, il pulsante verde con un trattino per diminuire, o sulla freccia verde per le mappe adiacenti.


METAR-TAF: